sensor_id;sensor_type;location;lat;lon;timestamp;P1;durP1;ratioP1;P2;durP2;ratioP2
69779;SDS011;57052;55.602;38.096;2022-11-02T00:00:36;6.05;;;2.60;;
69779;SDS011;57052;55.602;38.096;2022-11-02T00:03:05;7.88;;;2.88;;
69779;SDS011;57052;55.602;38.096;2022-11-02T00:05:31;4.93;;;2.58;;
69779;SDS011;57052;55.602;38.096;2022-11-02T00:07:57;6.05;;;3.00;;
69779;SDS011;57052;55.602;38.096;2022-11-02T00:10:25;7.65;;;2.85;;
69779;SDS011;57052;55.602;38.096;2022-11-02T00:12:51;7.70;;;2.85;;
69779;SDS011;57052;55.602;38.096;2022-11-02T00:15:17;7.05;;;2.83;;
69779;SDS011;57052;55.602;38.096;2022-11-02T00:17:47;5.13;;;2.70;;
69779;SDS011;57052;55.602;38.096;2022-11-02T00:20:19;9.20;;;3.13;;
69779;SDS011;57052;55.602;38.096;2022-11-02T00:22:45;7.78;;;3.30;;
69779;SDS011;57052;55.602;38.096;2022-11-02T00:25:15;6.95;;;3.05;;
69779;SDS011;57052;55.602;38.096;2022-11-02T00:27:43;6.53;;;2.70;;
69779;SDS011;57052;55.602;38.096;2022-11-02T00:30:09;7.38;;;3.20;;
69779;SDS011;57052;55.602;38.096;2022-11-02T00:32:35;7.65;;;3.50;;
69779;SDS011;57052;55.602;38.096;2022-11-02T00:35:00;5.57;;;2.80;;
69779;SDS011;57052;55.602;38.096;2022-11-02T00:37:26;6.53;;;3.03;;
69779;SDS011;57052;55.602;38.096;2022-11-02T00:39:51;8.27;;;2.95;;
69779;SDS011;57052;55.602;38.096;2022-11-02T00:42:17;11.07;;;4.05;;
69779;SDS011;57052;55.602;38.096;2022-11-02T00:44:42;6.05;;;3.20;;
69779;SDS011;57052;55.602;38.096;2022-11-02T00:47:08;6.90;;;3.17;;
69779;SDS011;57052;55.602;38.096;2022-11-02T00:49:33;6.53;;;3.22;;
69779;SDS011;57052;55.602;38.096;2022-11-02T00:51:59;9.18;;;3.50;;
69779;SDS011;57052;55.602;38.096;2022-11-02T00:54:25;6.55;;;3.17;;
69779;SDS011;57052;55.602;38.096;2022-11-02T00:56:50;8.20;;;3.20;;
69779;SDS011;57052;55.602;38.096;2022-11-02T00:59:16;7.90;;;3.35;;
69779;SDS011;57052;55.602;38.096;2022-11-02T01:01:41;6.60;;;3.15;;
69779;SDS011;57052;55.602;38.096;2022-11-02T01:04:14;6.82;;;2.97;;
69779;SDS011;57052;55.602;38.096;2022-11-02T01:06:44;8.15;;;3.63;;
69779;SDS011;57052;55.602;38.096;2022-11-02T01:09:10;7.53;;;2.95;;
69779;SDS011;57052;55.602;38.096;2022-11-02T01:11:38;7.53;;;3.22;;
69779;SDS011;57052;55.602;38.096;2022-11-02T01:14:04;6.22;;;2.95;;
69779;SDS011;57052;55.602;38.096;2022-11-02T01:16:30;7.43;;;3.10;;
69779;SDS011;57052;55.602;38.096;2022-11-02T01:18:56;7.57;;;2.80;;
69779;SDS011;57052;55.602;38.096;2022-11-02T01:21:22;7.15;;;3.42;;
69779;SDS011;57052;55.602;38.096;2022-11-02T01:23:47;7.00;;;2.90;;
69779;SDS011;57052;55.602;38.096;2022-11-02T01:26:13;11.75;;;3.45;;
69779;SDS011;57052;55.602;38.096;2022-11-02T01:28:39;9.10;;;3.05;;
69779;SDS011;57052;55.602;38.096;2022-11-02T01:31:06;6.47;;;3.00;;
69779;SDS011;57052;55.602;38.096;2022-11-02T01:33:32;8.15;;;3.20;;
69779;SDS011;57052;55.602;38.096;2022-11-02T01:36:00;6.72;;;3.20;;
69779;SDS011;57052;55.602;38.096;2022-11-02T01:38:27;7.35;;;2.75;;
69779;SDS011;57052;55.602;38.096;2022-11-02T01:40:52;6.38;;;2.95;;
69779;SDS011;57052;55.602;38.096;2022-11-02T01:43:22;9.68;;;3.20;;
69779;SDS011;57052;55.602;38.096;2022-11-02T01:45:51;9.00;;;3.03;;
69779;SDS011;57052;55.602;38.096;2022-11-02T01:48:26;7.60;;;3.28;;
69779;SDS011;57052;55.602;38.096;2022-11-02T01:50:56;6.65;;;3.28;;
69779;SDS011;57052;55.602;38.096;2022-11-02T01:53:24;8.23;;;2.83;;
69779;SDS011;57052;55.602;38.096;2022-11-02T01:55:50;8.70;;;2.83;;
69779;SDS011;57052;55.602;38.096;2022-11-02T01:58:16;10.52;;;3.05;;
69779;SDS011;57052;55.602;38.096;2022-11-02T02:00:41;10.32;;;3.30;;
69779;SDS011;57052;55.602;38.096;2022-11-02T02:03:08;9.80;;;3.05;;
69779;SDS011;57052;55.602;38.096;2022-11-02T02:05:41;8.55;;;3.50;;
69779;SDS011;57052;55.602;38.096;2022-11-02T02:08:09;8.95;;;3.70;;
69779;SDS011;57052;55.602;38.096;2022-11-02T02:10:38;6.80;;;3.28;;
69779;SDS011;57052;55.602;38.096;2022-11-02T02:13:04;9.65;;;3.13;;
69779;SDS011;57052;55.602;38.096;2022-11-02T02:15:36;12.40;;;3.38;;
69779;SDS011;57052;55.602;38.096;2022-11-02T02:23:35;8.05;;;3.47;;
69779;SDS011;57052;55.602;38.096;2022-11-02T02:29:00;7.90;;;3.25;;
69779;SDS011;57052;55.602;38.096;2022-11-02T02:36:42;6.70;;;3.25;;
69779;SDS011;57052;55.602;38.096;2022-11-02T02:39:11;13.13;;;3.70;;
69779;SDS011;57052;55.602;38.096;2022-11-02T02:41:45;8.30;;;2.90;;
69779;SDS011;57052;55.602;38.096;2022-11-02T02:44:22;8.35;;;3.28;;
69779;SDS011;57052;55.602;38.096;2022-11-02T02:46:58;10.52;;;3.25;;
69779;SDS011;57052;55.602;38.096;2022-11-02T02:49:29;7.07;;;3.22;;
69779;SDS011;57052;55.602;38.096;2022-11-02T02:52:01;8.65;;;3.25;;
69779;SDS011;57052;55.602;38.096;2022-11-02T02:54:31;7.22;;;3.20;;
69779;SDS011;57052;55.602;38.096;2022-11-02T02:57:05;7.78;;;2.95;;
69779;SDS011;57052;55.602;38.096;2022-11-02T02:59:38;8.93;;;3.40;;
69779;SDS011;57052;55.602;38.096;2022-11-02T03:02:07;8.55;;;3.13;;
69779;SDS011;57052;55.602;38.096;2022-11-02T03:04:45;6.68;;;2.65;;
69779;SDS011;57052;55.602;38.096;2022-11-02T03:07:12;6.95;;;3.10;;
69779;SDS011;57052;55.602;38.096;2022-11-02T03:09:55;6.45;;;2.55;;
69779;SDS011;57052;55.602;38.096;2022-11-02T03:12:34;6.90;;;3.10;;
69779;SDS011;57052;55.602;38.096;2022-11-02T03:15:12;6.40;;;3.17;;
69779;SDS011;57052;55.602;38.096;2022-11-02T03:21:02;8.23;;;2.85;;
69779;SDS011;57052;55.602;38.096;2022-11-02T03:24:16;7.55;;;3.20;;
69779;SDS011;57052;55.602;38.096;2022-11-02T03:29:24;6.68;;;2.85;;
69779;SDS011;57052;55.602;38.096;2022-11-02T03:31:55;6.70;;;3.38;;
69779;SDS011;57052;55.602;38.096;2022-11-02T03:34:36;8.13;;;3.03;;
69779;SDS011;57052;55.602;38.096;2022-11-02T03:37:09;6.43;;;3.28;;
69779;SDS011;57052;55.602;38.096;2022-11-02T03:39:47;9.27;;;3.50;;
69779;SDS011;57052;55.602;38.096;2022-11-02T03:42:16;7.82;;;3.22;;
69779;SDS011;57052;55.602;38.096;2022-11-02T03:44:46;8.80;;;3.72;;
69779;SDS011;57052;55.602;38.096;2022-11-02T03:47:16;8.02;;;3.33;;
69779;SDS011;57052;55.602;38.096;2022-11-02T03:49:44;9.13;;;3.50;;
69779;SDS011;57052;55.602;38.096;2022-11-02T03:52:14;9.63;;;3.70;;
69779;SDS011;57052;55.602;38.096;2022-11-02T03:54:52;8.10;;;3.30;;
69779;SDS011;57052;55.602;38.096;2022-11-02T04:00:18;7.55;;;3.20;;
69779;SDS011;57052;55.602;38.096;2022-11-02T04:02:49;6.78;;;3.58;;
69779;SDS011;57052;55.602;38.096;2022-11-02T04:05:18;8.68;;;3.30;;
69779;SDS011;57052;55.602;38.096;2022-11-02T04:07:45;8.30;;;3.70;;
69779;SDS011;57052;55.602;38.096;2022-11-02T04:10:33;10.35;;;4.28;;
69779;SDS011;57052;55.602;38.096;2022-11-02T04:12:58;10.65;;;4.18;;
69779;SDS011;57052;55.602;38.096;2022-11-02T04:15:43;9.50;;;4.18;;
69779;SDS011;57052;55.602;38.096;2022-11-02T04:18:08;11.68;;;4.18;;
69779;SDS011;57052;55.602;38.096;2022-11-02T04:21:03;10.38;;;4.50;;
69779;SDS011;57052;55.602;38.096;2022-11-02T04:23:29;12.18;;;4.43;;
69779;SDS011;57052;55.602;38.096;2022-11-02T04:26:13;11.40;;;4.57;;
69779;SDS011;57052;55.602;38.096;2022-11-02T04:28:41;9.27;;;3.72;;
69779;SDS011;57052;55.602;38.096;2022-11-02T04:31:06;11.10;;;3.90;;
69779;SDS011;57052;55.602;38.096;2022-11-02T04:33:32;10.88;;;4.60;;
69779;SDS011;57052;55.602;38.096;2022-11-02T04:36:01;9.88;;;4.63;;
69779;SDS011;57052;55.602;38.096;2022-11-02T04:38:31;12.48;;;5.10;;
69779;SDS011;57052;55.602;38.096;2022-11-02T04:41:13;12.65;;;4.57;;
69779;SDS011;57052;55.602;38.096;2022-11-02T04:44:00;9.27;;;4.22;;
69779;SDS011;57052;55.602;38.096;2022-11-02T04:46:27;15.13;;;4.95;;
69779;SDS011;57052;55.602;38.096;2022-11-02T04:48:54;12.55;;;4.40;;
69779;SDS011;57052;55.602;38.096;2022-11-02T04:51:21;11.63;;;4.50;;
69779;SDS011;57052;55.602;38.096;2022-11-02T04:53:47;11.43;;;4.40;;
69779;SDS011;57052;55.602;38.096;2022-11-02T04:56:14;8.27;;;3.88;;
69779;SDS011;57052;55.602;38.096;2022-11-02T04:58:40;10.05;;;4.38;;
69779;SDS011;57052;55.602;38.096;2022-11-02T05:01:06;10.68;;;4.60;;
69779;SDS011;57052;55.602;38.096;2022-11-02T05:03:33;10.38;;;4.15;;
69779;SDS011;57052;55.602;38.096;2022-11-02T05:06:00;8.98;;;3.58;;
69779;SDS011;57052;55.602;38.096;2022-11-02T05:08:26;10.25;;;4.60;;
69779;SDS011;57052;55.602;38.096;2022-11-02T05:10:53;11.10;;;4.28;;
69779;SDS011;57052;55.602;38.096;2022-11-02T05:13:23;9.05;;;4.10;;
69779;SDS011;57052;55.602;38.096;2022-11-02T05:15:49;8.43;;;4.22;;
69779;SDS011;57052;55.602;38.096;2022-11-02T05:18:15;8.73;;;4.13;;
69779;SDS011;57052;55.602;38.096;2022-11-02T05:20:40;10.00;;;4.18;;
69779;SDS011;57052;55.602;38.096;2022-11-02T05:23:06;11.93;;;4.18;;
69779;SDS011;57052;55.602;38.096;2022-11-02T05:25:32;8.65;;;3.83;;
69779;SDS011;57052;55.602;38.096;2022-11-02T05:27:58;9.05;;;3.80;;
69779;SDS011;57052;55.602;38.096;2022-11-02T05:30:24;9.25;;;4.03;;
69779;SDS011;57052;55.602;38.096;2022-11-02T05:32:53;7.80;;;3.75;;
69779;SDS011;57052;55.602;38.096;2022-11-02T05:35:20;8.07;;;3.70;;
69779;SDS011;57052;55.602;38.096;2022-11-02T05:37:45;11.00;;;3.65;;
69779;SDS011;57052;55.602;38.096;2022-11-02T05:40:11;8.32;;;3.42;;
69779;SDS011;57052;55.602;38.096;2022-11-02T05:42:37;9.60;;;3.60;;
69779;SDS011;57052;55.602;38.096;2022-11-02T05:45:03;7.45;;;3.03;;
69779;SDS011;57052;55.602;38.096;2022-11-02T05:47:29;7.68;;;3.60;;
69779;SDS011;57052;55.602;38.096;2022-11-02T05:49:54;9.32;;;3.67;;
69779;SDS011;57052;55.602;38.096;2022-11-02T05:52:20;8.30;;;3.28;;
69779;SDS011;57052;55.602;38.096;2022-11-02T05:54:45;9.27;;;3.70;;
69779;SDS011;57052;55.602;38.096;2022-11-02T05:57:11;9.23;;;3.70;;
69779;SDS011;57052;55.602;38.096;2022-11-02T05:59:36;11.18;;;3.60;;
69779;SDS011;57052;55.602;38.096;2022-11-02T06:02:02;6.05;;;3.10;;
69779;SDS011;57052;55.602;38.096;2022-11-02T06:04:27;9.65;;;3.63;;
69779;SDS011;57052;55.602;38.096;2022-11-02T06:06:53;8.75;;;3.42;;
69779;SDS011;57052;55.602;38.096;2022-11-02T06:09:18;8.45;;;3.38;;
69779;SDS011;57052;55.602;38.096;2022-11-02T06:11:44;8.93;;;3.58;;
69779;SDS011;57052;55.602;38.096;2022-11-02T06:14:10;9.43;;;3.80;;
69779;SDS011;57052;55.602;38.096;2022-11-02T06:16:35;6.15;;;3.13;;
69779;SDS011;57052;55.602;38.096;2022-11-02T06:19:01;6.78;;;3.00;;
69779;SDS011;57052;55.602;38.096;2022-11-02T06:21:27;6.90;;;3.38;;
69779;SDS011;57052;55.602;38.096;2022-11-02T06:23:52;7.07;;;3.53;;
69779;SDS011;57052;55.602;38.096;2022-11-02T06:26:18;7.00;;;3.13;;
69779;SDS011;57052;55.602;38.096;2022-11-02T06:28:43;7.75;;;3.35;;
69779;SDS011;57052;55.602;38.096;2022-11-02T06:31:09;6.53;;;3.40;;
69779;SDS011;57052;55.602;38.096;2022-11-02T06:33:35;7.15;;;3.60;;
69779;SDS011;57052;55.602;38.096;2022-11-02T06:36:00;9.45;;;3.60;;
69779;SDS011;57052;55.602;38.096;2022-11-02T06:38:26;8.93;;;4.13;;
69779;SDS011;57052;55.602;38.096;2022-11-02T06:40:54;12.82;;;4.03;;
69779;SDS011;57052;55.602;38.096;2022-11-02T06:43:20;8.10;;;3.80;;
69779;SDS011;57052;55.602;38.096;2022-11-02T06:45:46;9.20;;;4.03;;
69779;SDS011;57052;55.602;38.096;2022-11-02T06:48:12;9.85;;;3.83;;
69779;SDS011;57052;55.602;38.096;2022-11-02T06:50:37;8.50;;;3.95;;
69779;SDS011;57052;55.602;38.096;2022-11-02T06:53:03;11.80;;;4.25;;
69779;SDS011;57052;55.602;38.096;2022-11-02T06:55:28;7.40;;;4.00;;
69779;SDS011;57052;55.602;38.096;2022-11-02T06:57:54;9.13;;;4.35;;
69779;SDS011;57052;55.602;38.096;2022-11-02T07:00:19;12.30;;;4.65;;
69779;SDS011;57052;55.602;38.096;2022-11-02T07:02:45;12.70;;;4.70;;
69779;SDS011;57052;55.602;38.096;2022-11-02T07:05:22;10.15;;;3.83;;
69779;SDS011;57052;55.602;38.096;2022-11-02T07:07:48;8.65;;;3.63;;
69779;SDS011;57052;55.602;38.096;2022-11-02T07:10:13;8.13;;;4.10;;
69779;SDS011;57052;55.602;38.096;2022-11-02T07:12:42;9.98;;;4.07;;
69779;SDS011;57052;55.602;38.096;2022-11-02T07:15:10;10.13;;;4.18;;
69779;SDS011;57052;55.602;38.096;2022-11-02T07:17:39;10.80;;;3.80;;
69779;SDS011;57052;55.602;38.096;2022-11-02T07:20:05;12.10;;;4.38;;
69779;SDS011;57052;55.602;38.096;2022-11-02T07:22:34;7.50;;;3.90;;
69779;SDS011;57052;55.602;38.096;2022-11-02T07:25:00;8.55;;;4.00;;
69779;SDS011;57052;55.602;38.096;2022-11-02T07:27:29;7.32;;;3.50;;
69779;SDS011;57052;55.602;38.096;2022-11-02T07:29:55;8.90;;;3.70;;
69779;SDS011;57052;55.602;38.096;2022-11-02T07:32:22;9.05;;;4.18;;
69779;SDS011;57052;55.602;38.096;2022-11-02T07:34:48;11.35;;;4.45;;
69779;SDS011;57052;55.602;38.096;2022-11-02T07:37:13;7.65;;;4.32;;
69779;SDS011;57052;55.602;38.096;2022-11-02T07:39:39;10.02;;;3.85;;
69779;SDS011;57052;55.602;38.096;2022-11-02T07:42:04;7.72;;;4.10;;
69779;SDS011;57052;55.602;38.096;2022-11-02T07:44:31;9.40;;;3.90;;
69779;SDS011;57052;55.602;38.096;2022-11-02T07:46:57;7.68;;;3.85;;
69779;SDS011;57052;55.602;38.096;2022-11-02T07:49:22;7.50;;;3.95;;
69779;SDS011;57052;55.602;38.096;2022-11-02T07:51:48;10.00;;;4.40;;
69779;SDS011;57052;55.602;38.096;2022-11-02T07:54:14;10.27;;;3.95;;
69779;SDS011;57052;55.602;38.096;2022-11-02T07:56:39;7.70;;;3.80;;
69779;SDS011;57052;55.602;38.096;2022-11-02T07:59:09;7.70;;;3.67;;
69779;SDS011;57052;55.602;38.096;2022-11-02T08:01:35;8.50;;;4.07;;
69779;SDS011;57052;55.602;38.096;2022-11-02T08:04:00;10.32;;;4.60;;
69779;SDS011;57052;55.602;38.096;2022-11-02T08:06:26;11.05;;;4.47;;
69779;SDS011;57052;55.602;38.096;2022-11-02T08:08:51;9.65;;;4.45;;
69779;SDS011;57052;55.602;38.096;2022-11-02T08:11:17;10.18;;;4.50;;
69779;SDS011;57052;55.602;38.096;2022-11-02T08:13:43;8.70;;;3.83;;
69779;SDS011;57052;55.602;38.096;2022-11-02T08:16:08;8.27;;;3.47;;
69779;SDS011;57052;55.602;38.096;2022-11-02T08:18:37;8.43;;;3.75;;
69779;SDS011;57052;55.602;38.096;2022-11-02T08:21:03;11.27;;;4.30;;
69779;SDS011;57052;55.602;38.096;2022-11-02T08:23:29;7.38;;;3.30;;
69779;SDS011;57052;55.602;38.096;2022-11-02T08:25:56;7.45;;;3.70;;
69779;SDS011;57052;55.602;38.096;2022-11-02T08:28:24;10.23;;;4.20;;
69779;SDS011;57052;55.602;38.096;2022-11-02T08:30:56;10.73;;;4.40;;
69779;SDS011;57052;55.602;38.096;2022-11-02T08:33:23;9.25;;;3.90;;
69779;SDS011;57052;55.602;38.096;2022-11-02T08:35:49;8.98;;;3.83;;
69779;SDS011;57052;55.602;38.096;2022-11-02T08:38:15;8.45;;;4.32;;
69779;SDS011;57052;55.602;38.096;2022-11-02T08:40:41;8.40;;;4.18;;
69779;SDS011;57052;55.602;38.096;2022-11-02T08:43:11;9.20;;;4.00;;
69779;SDS011;57052;55.602;38.096;2022-11-02T08:45:38;9.35;;;4.20;;
69779;SDS011;57052;55.602;38.096;2022-11-02T08:48:05;8.88;;;3.63;;
69779;SDS011;57052;55.602;38.096;2022-11-02T08:50:31;10.43;;;4.00;;
69779;SDS011;57052;55.602;38.096;2022-11-02T08:52:57;8.40;;;3.90;;
69779;SDS011;57052;55.602;38.096;2022-11-02T08:55:23;8.70;;;3.88;;
69779;SDS011;57052;55.602;38.096;2022-11-02T08:57:49;6.63;;;3.30;;
69779;SDS011;57052;55.602;38.096;2022-11-02T09:00:17;9.20;;;4.05;;
69779;SDS011;57052;55.602;38.096;2022-11-02T09:02:56;12.80;;;3.92;;
69779;SDS011;57052;55.602;38.096;2022-11-02T09:05:22;7.20;;;3.50;;
69779;SDS011;57052;55.602;38.096;2022-11-02T09:07:48;6.82;;;3.05;;
69779;SDS011;57052;55.602;38.096;2022-11-02T09:10:19;7.25;;;3.17;;
69779;SDS011;57052;55.602;38.096;2022-11-02T09:12:44;9.88;;;3.67;;
69779;SDS011;57052;55.602;38.096;2022-11-02T09:15:10;7.25;;;3.25;;
69779;SDS011;57052;55.602;38.096;2022-11-02T09:17:35;6.82;;;3.60;;
69779;SDS011;57052;55.602;38.096;2022-11-02T09:20:01;5.40;;;2.88;;
69779;SDS011;57052;55.602;38.096;2022-11-02T09:22:27;7.57;;;3.30;;
69779;SDS011;57052;55.602;38.096;2022-11-02T09:24:52;6.85;;;2.92;;
69779;SDS011;57052;55.602;38.096;2022-11-02T09:27:18;9.80;;;3.28;;
69779;SDS011;57052;55.602;38.096;2022-11-02T09:29:43;8.20;;;3.10;;
69779;SDS011;57052;55.602;38.096;2022-11-02T09:32:12;7.68;;;3.50;;
69779;SDS011;57052;55.602;38.096;2022-11-02T09:34:37;7.30;;;2.78;;
69779;SDS011;57052;55.602;38.096;2022-11-02T09:37:04;7.00;;;2.95;;
69779;SDS011;57052;55.602;38.096;2022-11-02T09:39:29;5.50;;;3.15;;
69779;SDS011;57052;55.602;38.096;2022-11-02T09:42:06;7.10;;;3.10;;
69779;SDS011;57052;55.602;38.096;2022-11-02T09:44:57;7.35;;;2.88;;
69779;SDS011;57052;55.602;38.096;2022-11-02T09:47:23;8.30;;;3.10;;
69779;SDS011;57052;55.602;38.096;2022-11-02T09:49:52;9.68;;;2.60;;
69779;SDS011;57052;55.602;38.096;2022-11-02T09:52:40;5.18;;;2.90;;
69779;SDS011;57052;55.602;38.096;2022-11-02T09:55:11;7.10;;;3.03;;
69779;SDS011;57052;55.602;38.096;2022-11-02T09:57:46;6.65;;;3.00;;
69779;SDS011;57052;55.602;38.096;2022-11-02T10:00:15;7.22;;;3.35;;
69779;SDS011;57052;55.602;38.096;2022-11-02T10:03:20;5.65;;;3.17;;
69779;SDS011;57052;55.602;38.096;2022-11-02T10:06:01;7.55;;;3.38;;
69779;SDS011;57052;55.602;38.096;2022-11-02T10:12:06;8.27;;;3.45;;
69779;SDS011;57052;55.602;38.096;2022-11-02T10:14:36;6.93;;;3.22;;
69779;SDS011;57052;55.602;38.096;2022-11-02T10:19:52;6.85;;;3.03;;
69779;SDS011;57052;55.602;38.096;2022-11-02T10:22:21;6.38;;;2.92;;
69779;SDS011;57052;55.602;38.096;2022-11-02T10:24:52;6.10;;;3.30;;
69779;SDS011;57052;55.602;38.096;2022-11-02T10:27:25;5.63;;;3.03;;
69779;SDS011;57052;55.602;38.096;2022-11-02T10:29:54;7.47;;;3.25;;
69779;SDS011;57052;55.602;38.096;2022-11-02T10:32:25;8.10;;;3.33;;
69779;SDS011;57052;55.602;38.096;2022-11-02T10:34:51;5.43;;;2.92;;
69779;SDS011;57052;55.602;38.096;2022-11-02T10:38:05;6.03;;;2.92;;
69779;SDS011;57052;55.602;38.096;2022-11-02T10:48:09;6.50;;;2.78;;
69779;SDS011;57052;55.602;38.096;2022-11-02T10:53:27;5.95;;;3.13;;
69779;SDS011;57052;55.602;38.096;2022-11-02T11:01:24;7.32;;;3.28;;
69779;SDS011;57052;55.602;38.096;2022-11-02T11:03:51;9.90;;;4.03;;
69779;SDS011;57052;55.602;38.096;2022-11-02T11:06:21;7.55;;;3.30;;
69779;SDS011;57052;55.602;38.096;2022-11-02T11:08:48;5.60;;;2.90;;
69779;SDS011;57052;55.602;38.096;2022-11-02T11:14:16;7.00;;;3.30;;
69779;SDS011;57052;55.602;38.096;2022-11-02T11:16:46;7.28;;;3.35;;
69779;SDS011;57052;55.602;38.096;2022-11-02T11:19:17;7.13;;;3.17;;
69779;SDS011;57052;55.602;38.096;2022-11-02T11:21:43;8.75;;;3.60;;
69779;SDS011;57052;55.602;38.096;2022-11-02T11:32:17;11.23;;;4.30;;
69779;SDS011;57052;55.602;38.096;2022-11-02T11:37:29;7.88;;;4.10;;
69779;SDS011;57052;55.602;38.096;2022-11-02T11:39:56;9.65;;;4.07;;
69779;SDS011;57052;55.602;38.096;2022-11-02T11:42:33;10.70;;;4.32;;
69779;SDS011;57052;55.602;38.096;2022-11-02T11:45:02;10.17;;;4.40;;
69779;SDS011;57052;55.602;38.096;2022-11-02T11:47:33;10.52;;;4.70;;
69779;SDS011;57052;55.602;38.096;2022-11-02T11:50:03;9.73;;;4.72;;
69779;SDS011;57052;55.602;38.096;2022-11-02T11:52:32;11.43;;;5.00;;
69779;SDS011;57052;55.602;38.096;2022-11-02T11:55:18;10.10;;;4.85;;
69779;SDS011;57052;55.602;38.096;2022-11-02T11:57:44;10.40;;;4.60;;
69779;SDS011;57052;55.602;38.096;2022-11-02T12:00:26;10.80;;;5.15;;
69779;SDS011;57052;55.602;38.096;2022-11-02T12:03:03;9.65;;;4.78;;
69779;SDS011;57052;55.602;38.096;2022-11-02T12:08:30;13.32;;;5.45;;
69779;SDS011;57052;55.602;38.096;2022-11-02T12:11:25;11.20;;;5.32;;
69779;SDS011;57052;55.602;38.096;2022-11-02T12:27:33;11.63;;;5.30;;
69779;SDS011;57052;55.602;38.096;2022-11-02T12:30:12;10.15;;;5.03;;
69779;SDS011;57052;55.602;38.096;2022-11-02T12:33:12;11.38;;;5.30;;
69779;SDS011;57052;55.602;38.096;2022-11-02T12:35:48;9.80;;;4.88;;
69779;SDS011;57052;55.602;38.096;2022-11-02T12:41:11;12.80;;;5.32;;
69779;SDS011;57052;55.602;38.096;2022-11-02T12:43:42;10.70;;;5.05;;
69779;SDS011;57052;55.602;38.096;2022-11-02T12:49:34;11.70;;;5.07;;
69779;SDS011;57052;55.602;38.096;2022-11-02T12:54:34;11.85;;;4.85;;
69779;SDS011;57052;55.602;38.096;2022-11-02T12:57:06;11.52;;;5.32;;
69779;SDS011;57052;55.602;38.096;2022-11-02T12:59:37;11.55;;;5.20;;
69779;SDS011;57052;55.602;38.096;2022-11-02T13:02:17;13.45;;;5.10;;
69779;SDS011;57052;55.602;38.096;2022-11-02T13:04:54;10.75;;;5.22;;
69779;SDS011;57052;55.602;38.096;2022-11-02T13:07:33;10.70;;;5.63;;
69779;SDS011;57052;55.602;38.096;2022-11-02T13:10:25;12.95;;;5.07;;
69779;SDS011;57052;55.602;38.096;2022-11-02T13:12:58;12.30;;;4.68;;
69779;SDS011;57052;55.602;38.096;2022-11-02T13:15:25;12.55;;;4.57;;
69779;SDS011;57052;55.602;38.096;2022-11-02T13:17:58;13.25;;;5.45;;
69779;SDS011;57052;55.602;38.096;2022-11-02T13:20:39;11.60;;;4.90;;
69779;SDS011;57052;55.602;38.096;2022-11-02T13:26:06;10.65;;;5.10;;
69779;SDS011;57052;55.602;38.096;2022-11-02T13:28:46;12.75;;;4.65;;
69779;SDS011;57052;55.602;38.096;2022-11-02T13:31:58;9.93;;;4.55;;
69779;SDS011;57052;55.602;38.096;2022-11-02T13:34:09;11.57;;;4.60;;
69779;SDS011;57052;55.602;38.096;2022-11-02T13:36:51;8.60;;;4.53;;
69779;SDS011;57052;55.602;38.096;2022-11-02T13:39:19;11.57;;;5.10;;
69779;SDS011;57052;55.602;38.096;2022-11-02T13:44:38;11.05;;;4.88;;
69779;SDS011;57052;55.602;38.096;2022-11-02T13:50:10;10.27;;;5.27;;
69779;SDS011;57052;55.602;38.096;2022-11-02T13:52:59;8.45;;;4.30;;
69779;SDS011;57052;55.602;38.096;2022-11-02T13:55:40;11.13;;;4.60;;
69779;SDS011;57052;55.602;38.096;2022-11-02T13:58:17;11.93;;;4.63;;
69779;SDS011;57052;55.602;38.096;2022-11-02T14:00:59;11.93;;;4.95;;
69779;SDS011;57052;55.602;38.096;2022-11-02T14:06:13;13.02;;;5.70;;
69779;SDS011;57052;55.602;38.096;2022-11-02T14:08:53;13.90;;;5.78;;
69779;SDS011;57052;55.602;38.096;2022-11-02T14:11:23;10.63;;;5.28;;
69779;SDS011;57052;55.602;38.096;2022-11-02T14:21:39;7.15;;;3.80;;
69779;SDS011;57052;55.602;38.096;2022-11-02T14:49:14;8.27;;;3.95;;
69779;SDS011;57052;55.602;38.096;2022-11-02T14:51:43;7.68;;;3.88;;
69779;SDS011;57052;55.602;38.096;2022-11-02T14:54:18;10.40;;;3.95;;
69779;SDS011;57052;55.602;38.096;2022-11-02T14:59:27;7.97;;;3.88;;
69779;SDS011;57052;55.602;38.096;2022-11-02T15:02:00;9.07;;;4.45;;
69779;SDS011;57052;55.602;38.096;2022-11-02T15:04:29;8.52;;;4.13;;
69779;SDS011;57052;55.602;38.096;2022-11-02T15:06:59;9.57;;;4.18;;
69779;SDS011;57052;55.602;38.096;2022-11-02T15:17:53;7.70;;;3.80;;
69779;SDS011;57052;55.602;38.096;2022-11-02T15:20:26;8.10;;;3.63;;
69779;SDS011;57052;55.602;38.096;2022-11-02T15:25:41;7.43;;;3.50;;
69779;SDS011;57052;55.602;38.096;2022-11-02T15:28:16;5.40;;;3.13;;
69779;SDS011;57052;55.602;38.096;2022-11-02T15:30:56;7.88;;;3.60;;
69779;SDS011;57052;55.602;38.096;2022-11-02T15:33:39;13.13;;;3.72;;
69779;SDS011;57052;55.602;38.096;2022-11-02T15:36:11;9.98;;;3.78;;
69779;SDS011;57052;55.602;38.096;2022-11-02T15:38:45;8.98;;;3.67;;
69779;SDS011;57052;55.602;38.096;2022-11-02T15:41:18;11.80;;;4.20;;
69779;SDS011;57052;55.602;38.096;2022-11-02T15:49:22;9.05;;;3.72;;
69779;SDS011;57052;55.602;38.096;2022-11-02T16:02:42;11.82;;;4.72;;
69779;SDS011;57052;55.602;38.096;2022-11-02T16:05:19;10.38;;;4.40;;
69779;SDS011;57052;55.602;38.096;2022-11-02T16:07:48;10.23;;;4.20;;
69779;SDS011;57052;55.602;38.096;2022-11-02T16:10:23;10.15;;;4.45;;
69779;SDS011;57052;55.602;38.096;2022-11-02T16:12:59;10.48;;;4.53;;
69779;SDS011;57052;55.602;38.096;2022-11-02T16:15:26;9.63;;;3.78;;
69779;SDS011;57052;55.602;38.096;2022-11-02T16:17:53;7.47;;;3.75;;
69779;SDS011;57052;55.602;38.096;2022-11-02T16:20:26;6.13;;;3.60;;
69779;SDS011;57052;55.602;38.096;2022-11-02T16:25:52;7.57;;;3.47;;
69779;SDS011;57052;55.602;38.096;2022-11-02T16:28:21;5.60;;;3.22;;
69779;SDS011;57052;55.602;38.096;2022-11-02T16:33:37;5.80;;;3.47;;
69779;SDS011;57052;55.602;38.096;2022-11-02T16:36:40;7.53;;;3.22;;
69779;SDS011;57052;55.602;38.096;2022-11-02T16:41:33;6.05;;;3.10;;
69779;SDS011;57052;55.602;38.096;2022-11-02T16:44:09;7.75;;;3.03;;
69779;SDS011;57052;55.602;38.096;2022-11-02T16:52:19;9.15;;;3.53;;
69779;SDS011;57052;55.602;38.096;2022-11-02T16:58:03;5.90;;;2.80;;
69779;SDS011;57052;55.602;38.096;2022-11-02T17:00:39;9.25;;;3.28;;
69779;SDS011;57052;55.602;38.096;2022-11-02T17:03:30;7.13;;;3.20;;
69779;SDS011;57052;55.602;38.096;2022-11-02T17:05:58;9.02;;;3.60;;
69779;SDS011;57052;55.602;38.096;2022-11-02T17:08:30;8.18;;;3.72;;
69779;SDS011;57052;55.602;38.096;2022-11-02T17:10:59;9.70;;;4.20;;
69779;SDS011;57052;55.602;38.096;2022-11-02T17:13:30;8.73;;;3.58;;
69779;SDS011;57052;55.602;38.096;2022-11-02T17:16:03;9.90;;;3.95;;
69779;SDS011;57052;55.602;38.096;2022-11-02T17:18:32;7.57;;;3.22;;
69779;SDS011;57052;55.602;38.096;2022-11-02T17:23:44;8.73;;;4.00;;
69779;SDS011;57052;55.602;38.096;2022-11-02T17:28:46;9.88;;;3.90;;
69779;SDS011;57052;55.602;38.096;2022-11-02T17:33:48;9.05;;;3.17;;
69779;SDS011;57052;55.602;38.096;2022-11-02T17:36:14;7.55;;;2.92;;
69779;SDS011;57052;55.602;38.096;2022-11-02T17:38:41;6.13;;;3.00;;
69779;SDS011;57052;55.602;38.096;2022-11-02T17:41:14;7.43;;;3.28;;
69779;SDS011;57052;55.602;38.096;2022-11-02T17:43:59;7.07;;;3.22;;
69779;SDS011;57052;55.602;38.096;2022-11-02T17:46:26;6.07;;;2.83;;
69779;SDS011;57052;55.602;38.096;2022-11-02T17:48:51;5.38;;;2.72;;
69779;SDS011;57052;55.602;38.096;2022-11-02T17:51:17;4.68;;;2.63;;